Time;durP1;ratioP1;P1;durP2;ratioP2;P2;SDS_P1;SDS_P2;PMS_P1;PMS_P2;Temp;Humidity;BMP_temperature;BMP_pressure;BME280_temperature;BME280_humidity;BME280_pressure;Samples;Min_cycle;Max_cycle;Signal;HPM_P1;HPM_P2
2024/01/07 00:00:36;;;;;;;44.05;18.98;;;;;;;3.98;85.66;99916.03;2556079;28;20041;-79
2024/01/07 00:01:51;;;;;;;42.50;20.25;;;;;;;3.98;85.71;99916.03;2556425;28;20040;-80
2024/01/07 00:03:04;;;;;;;42.70;20.10;;;;;;;3.98;85.68;99916.03;2555983;28;20044;-78
2024/01/07 00:04:19;;;;;;;38.35;18.35;;;;;;;3.97;85.63;99912.56;2555258;28;20400;-80
2024/01/07 00:05:32;;;;;;;40.40;17.92;;;;;;;3.98;85.56;99916.91;2556200;28;20052;-80
2024/01/07 00:06:47;;;;;;;42.00;20.60;;;;;;;3.99;85.75;99915.16;2556152;28;20059;-79
2024/01/07 00:08:01;;;;;;;33.72;16.80;;;;;;;3.98;85.84;99918.63;2554471;28;20135;-79
2024/01/07 00:09:16;;;;;;;34.45;18.20;;;;;;;3.97;85.64;99911.72;2554795;28;20054;-79
2024/01/07 00:10:30;;;;;;;44.55;20.63;;;;;;;3.94;85.69;99913.41;2554847;28;20135;-79
2024/01/07 00:11:44;;;;;;;37.85;17.35;;;;;;;3.93;85.67;99916.84;2553821;28;20045;-79
2024/01/07 00:13:00;;;;;;;43.85;19.98;;;;;;;3.92;85.78;99912.56;2557769;28;20680;-80
2024/01/07 00:14:16;;;;;;;36.42;19.33;;;;;;;3.91;85.67;99917.69;2554486;28;20513;-79
2024/01/07 00:15:29;;;;;;;41.15;19.15;;;;;;;3.92;85.89;99916.84;2553758;28;20519;-78
2024/01/07 00:16:46;;;;;;;42.28;18.38;;;;;;;3.91;85.63;99915.13;2553545;28;20048;-79
2024/01/07 00:18:00;;;;;;;30.73;18.33;;;;;;;3.90;85.61;99922.00;2553781;28;20106;-79
2024/01/07 00:19:14;;;;;;;37.90;18.10;;;;;;;3.90;85.87;99916.00;2554589;28;20041;-78
2024/01/07 00:20:28;;;;;;;33.47;19.95;;;;;;;3.90;85.70;99916.84;2554710;28;20045;-79
2024/01/07 00:21:42;;;;;;;38.08;18.42;;;;;;;3.90;85.90;99919.44;2554627;28;20457;-78
2024/01/07 00:22:57;;;;;;;39.05;19.95;;;;;;;3.91;86.05;99925.44;2553587;28;20047;-78
2024/01/07 00:24:10;;;;;;;35.33;20.63;;;;;;;3.89;85.79;99925.41;2553430;28;20056;-79
2024/01/07 00:25:25;;;;;;;43.45;22.90;;;;;;;3.88;85.99;99922.84;2554857;28;20059;-79
2024/01/07 00:26:38;;;;;;;36.75;19.88;;;;;;;3.87;85.91;99919.41;2554414;28;20097;-79
2024/01/07 00:27:55;;;;;;;37.78;20.38;;;;;;;3.87;85.70;99931.44;2554754;28;20458;-78
2024/01/07 00:29:10;;;;;;;36.65;19.10;;;;;;;3.85;85.82;99920.25;2555171;28;20097;-78
2024/01/07 00:30:24;;;;;;;36.30;19.33;;;;;;;3.86;85.94;99925.41;2555154;28;20577;-78
2024/01/07 00:31:37;;;;;;;35.42;21.58;;;;;;;3.85;85.91;99917.69;2554929;28;20045;-79
2024/01/07 00:32:52;;;;;;;38.88;19.17;;;;;;;3.84;86.00;99924.53;2554834;28;20045;-78
2024/01/07 00:34:05;;;;;;;37.55;20.60;;;;;;;3.83;86.03;99927.97;2555078;28;20048;-78
2024/01/07 00:35:20;;;;;;;38.97;19.95;;;;;;;3.84;85.94;99934.00;2554344;28;20083;-76
2024/01/07 00:36:33;;;;;;;35.53;18.45;;;;;;;3.84;85.85;99927.09;2555304;28;20634;-78
2024/01/07 00:37:48;;;;;;;32.83;18.17;;;;;;;3.85;86.01;99928.84;2555292;28;20048;-79
2024/01/07 00:39:01;;;;;;;33.92;19.75;;;;;;;3.86;85.91;99932.28;2555286;28;20358;-79
2024/01/07 00:40:16;;;;;;;37.55;18.85;;;;;;;3.82;86.07;99934.00;2554695;28;20041;-79
2024/01/07 00:41:30;;;;;;;31.27;17.15;;;;;;;3.83;86.04;99927.13;2555619;28;20484;-81
2024/01/07 00:42:45;;;;;;;35.75;18.42;;;;;;;3.81;86.04;99932.25;2559655;28;20051;-78
2024/01/07 00:43:58;;;;;;;32.08;18.60;;;;;;;3.80;86.23;99938.28;2558424;28;20055;-79
2024/01/07 00:45:14;;;;;;;36.33;18.33;;;;;;;3.78;85.99;99931.38;2554988;28;20080;-79
2024/01/07 00:46:28;;;;;;;32.60;17.48;;;;;;;3.78;85.94;99942.56;2546840;28;20044;-78
2024/01/07 00:47:42;;;;;;;34.90;18.52;;;;;;;3.78;85.99;99923.63;2555301;28;20068;-81
2024/01/07 00:48:56;;;;;;;37.78;19.35;;;;;;;3.80;86.00;99932.25;2557851;28;20048;-80
2024/01/07 00:50:10;;;;;;;35.00;17.60;;;;;;;3.78;86.12;99927.06;2557116;28;20044;-81
2024/01/07 00:51:24;;;;;;;35.95;18.30;;;;;;;3.79;86.13;99935.69;2556749;28;20051;-82
2024/01/07 00:52:38;;;;;;;37.38;17.48;;;;;;;3.79;86.09;99935.69;2557332;28;20044;-80
2024/01/07 00:53:51;;;;;;;28.60;15.65;;;;;;;3.80;86.14;99938.28;2557233;28;20040;-80
2024/01/07 00:55:07;;;;;;;28.55;15.48;;;;;;;3.78;86.22;99942.56;2556394;28;20078;-81
2024/01/07 00:56:20;;;;;;;31.83;15.10;;;;;;;3.76;86.17;99931.34;2555138;28;20072;-78
2024/01/07 00:57:34;;;;;;;24.05;13.85;;;;;;;3.75;86.12;99936.53;2555534;28;20471;-79
2024/01/07 00:58:48;;;;;;;27.88;14.18;;;;;;;3.73;86.06;99939.09;2555237;28;20052;-79
2024/01/07 01:00:06;;;;;;;24.83;13.82;;;;;;;3.71;86.24;99933.03;2554908;28;20040;-81
2024/01/07 01:01:20;;;;;;;29.90;13.73;;;;;;;3.70;86.17;99936.47;2555567;28;20043;-80
2024/01/07 01:02:35;;;;;;;30.58;14.68;;;;;;;3.72;86.32;99947.69;2555094;28;20072;-81
2024/01/07 01:03:49;;;;;;;26.42;14.65;;;;;;;3.72;86.38;99937.38;2555271;28;20394;-80
2024/01/07 01:05:04;;;;;;;26.10;13.82;;;;;;;3.73;86.49;99939.09;2555215;28;20118;-80
2024/01/07 01:06:17;;;;;;;30.50;15.68;;;;;;;3.74;86.39;99940.78;2554723;28;20040;-81
2024/01/07 01:07:32;;;;;;;24.05;12.82;;;;;;;3.76;86.31;99941.69;2554964;28;20528;-79
2024/01/07 01:08:45;;;;;;;24.90;12.73;;;;;;;3.76;86.45;99943.41;2555258;28;20056;-80
2024/01/07 01:10:00;;;;;;;29.45;14.98;;;;;;;3.76;86.46;99935.66;2555801;28;20044;-80
2024/01/07 01:11:13;;;;;;;30.33;15.93;;;;;;;3.77;86.46;99945.13;2555116;28;20044;-80
2024/01/07 01:12:29;;;;;;;25.40;14.65;;;;;;;3.77;86.48;99945.13;2554757;28;20044;-81
2024/01/07 01:13:43;;;;;;;28.77;14.00;;;;;;;3.76;86.43;99938.25;2555515;28;20062;-79
2024/01/07 01:14:57;;;;;;;26.38;15.15;;;;;;;3.77;86.46;99942.53;2555346;28;20056;-79
2024/01/07 01:16:10;;;;;;;28.85;14.48;;;;;;;3.76;86.64;99941.69;2554319;28;20037;-80
2024/01/07 01:17:26;;;;;;;29.40;13.82;;;;;;;3.77;86.55;99946.00;2554879;28;20044;-80
2024/01/07 01:18:40;;;;;;;25.23;14.15;;;;;;;3.77;86.47;99945.13;2554892;28;20052;-80
2024/01/07 01:19:54;;;;;;;29.20;13.98;;;;;;;3.77;86.55;99947.69;2554515;28;20051;-81
2024/01/07 01:21:08;;;;;;;35.42;17.95;;;;;;;3.77;86.53;99945.13;2554211;28;20045;-80
2024/01/07 01:22:22;;;;;;;31.15;15.98;;;;;;;3.76;86.73;99940.81;2554665;28;20041;-80
2024/01/07 01:23:36;;;;;;;35.17;16.92;;;;;;;3.76;86.50;99948.56;2554691;28;20048;-80
2024/01/07 01:24:51;;;;;;;32.47;17.38;;;;;;;3.77;86.55;99950.28;2554822;28;20054;-78
2024/01/07 01:26:04;;;;;;;31.65;17.13;;;;;;;3.78;86.55;99946.88;2554683;28;20048;-79
2024/01/07 01:27:19;;;;;;;31.33;16.33;;;;;;;3.78;86.52;99947.72;2554099;28;20578;-80
2024/01/07 01:28:32;;;;;;;34.55;16.23;;;;;;;3.77;86.73;99946.00;2554907;28;20060;-80
2024/01/07 01:29:46;;;;;;;30.35;16.00;;;;;;;3.76;86.36;99949.41;2554275;28;20420;-79
2024/01/07 01:31:00;;;;;;;40.15;17.98;;;;;;;3.77;86.63;99953.75;2554309;28;20068;-78
2024/01/07 01:32:14;;;;;;;28.73;17.40;;;;;;;3.77;86.63;99950.28;2553986;28;20041;-79
2024/01/07 01:33:29;;;;;;;36.22;17.23;;;;;;;3.77;86.64;99952.88;2554684;28;20501;-79
2024/01/07 01:34:43;;;;;;;30.88;17.90;;;;;;;3.76;86.59;99952.00;2554288;28;20071;-79
2024/01/07 01:35:57;;;;;;;36.88;17.92;;;;;;;3.75;86.64;99955.44;2553929;28;20052;-79
2024/01/07 01:37:12;;;;;;;37.20;17.35;;;;;;;3.73;86.56;99957.16;2554215;28;20116;-79
2024/01/07 01:38:25;;;;;;;33.63;16.95;;;;;;;3.73;86.54;99962.31;2554239;28;20113;-78
2024/01/07 01:39:40;;;;;;;37.08;18.48;;;;;;;3.71;86.62;99962.28;2553939;28;20086;-79
2024/01/07 01:40:54;;;;;;;39.25;18.45;;;;;;;3.71;86.65;99961.44;2553992;28;20041;-82
2024/01/07 01:42:08;;;;;;;43.80;19.48;;;;;;;3.71;86.82;99957.13;2554063;28;20050;-78
2024/01/07 01:43:23;;;;;;;36.67;18.45;;;;;;;3.74;86.74;99965.75;2554072;28;20055;-81
2024/01/07 01:44:37;;;;;;;34.85;19.08;;;;;;;3.73;86.76;99954.56;2554509;28;20413;-81
2024/01/07 01:45:51;;;;;;;37.40;18.08;;;;;;;3.72;86.68;99963.19;2554888;28;20045;-83
2024/01/07 01:47:06;;;;;;;34.95;16.55;;;;;;;3.71;86.64;99964.88;2555536;28;20128;-83
2024/01/07 01:48:19;;;;;;;35.58;17.05;;;;;;;3.68;86.71;99966.56;2555948;28;20409;-83
2024/01/07 01:49:37;;;;;;;33.42;18.58;;;;;;;3.67;86.64;99964.84;2556281;28;20051;-82
2024/01/07 01:50:53;;;;;;;38.45;19.20;;;;;;;3.66;86.70;99963.09;2556400;28;20051;-81
2024/01/07 01:52:08;;;;;;;38.88;17.58;;;;;;;3.66;86.81;99968.25;2556042;28;20036;-83
2024/01/07 01:53:21;;;;;;;36.03;17.77;;;;;;;3.67;86.90;99954.53;2556218;28;20429;-84
2024/01/07 01:54:36;;;;;;;31.73;18.58;;;;;;;3.67;86.74;99964.84;2556313;28;20057;-83
2024/01/07 01:55:50;;;;;;;34.72;17.35;;;;;;;3.65;86.71;99962.25;2556399;28;20489;-81
2024/01/07 01:57:05;;;;;;;36.53;19.00;;;;;;;3.64;86.76;99954.47;2557022;28;20055;-84
2024/01/07 01:58:19;;;;;;;51.95;21.73;;;;;;;3.62;86.76;99967.38;2554959;28;20489;-81
2024/01/07 01:59:34;;;;;;;39.90;19.23;;;;;;;3.61;86.89;99959.63;2556182;28;20056;-83
2024/01/07 02:00:48;;;;;;;34.17;17.35;;;;;;;3.61;86.76;99968.22;2555989;28;20482;-81
2024/01/07 02:02:02;;;;;;;38.65;18.40;;;;;;;3.59;86.87;99962.19;2556511;28;20044;-83
2024/01/07 02:03:16;;;;;;;40.60;18.33;;;;;;;3.58;86.88;99957.88;2556210;28;20048;-82
2024/01/07 02:04:30;;;;;;;40.42;20.48;;;;;;;3.59;86.75;99969.06;2556753;28;20053;-83
2024/01/07 02:05:46;;;;;;;32.92;17.17;;;;;;;3.58;87.03;99957.88;2556220;28;20048;-82
2024/01/07 02:07:00;;;;;;;38.30;18.30;;;;;;;3.59;87.02;99966.47;2556110;28;20067;-83
2024/01/07 02:08:14;;;;;;;48.65;20.90;;;;;;;3.60;87.00;99963.06;2556286;28;20044;-82
2024/01/07 02:09:28;;;;;;;39.33;17.77;;;;;;;3.61;86.88;99969.94;2556912;28;20044;-83
2024/01/07 02:10:41;;;;;;;40.70;18.33;;;;;;;3.60;87.00;99963.06;2556161;28;20045;-83
2024/01/07 02:12:02;;;;;;;35.75;17.48;;;;;;;3.59;86.99;99967.38;2555983;28;20055;-82
2024/01/07 02:13:16;;;;;;;33.33;17.15;;;;;;;3.58;86.94;99967.34;2555440;28;20052;-83
2024/01/07 02:14:30;;;;;;;43.90;19.42;;;;;;;3.58;86.97;99969.91;2556429;28;20055;-83
2024/01/07 02:15:44;;;;;;;35.40;19.52;;;;;;;3.59;87.13;99967.38;2557271;28;20040;-83
2024/01/07 02:16:58;;;;;;;41.83;19.13;;;;;;;3.60;87.10;99963.91;2556499;28;20044;-83
2024/01/07 02:18:12;;;;;;;41.15;20.33;;;;;;;3.61;87.06;99972.53;2555897;28;20055;-80
2024/01/07 02:19:26;;;;;;;39.75;19.15;;;;;;;3.59;86.99;99966.47;2555709;28;20052;-83
2024/01/07 02:20:40;;;;;;;37.92;18.63;;;;;;;3.57;87.08;99963.91;2556557;28;20063;-83
2024/01/07 02:21:56;;;;;;;44.13;21.58;;;;;;;3.55;86.80;99968.19;2556218;28;20040;-83
2024/01/07 02:23:09;;;;;;;42.95;18.60;;;;;;;3.54;86.95;99968.16;2556322;28;20045;-83
2024/01/07 02:24:25;;;;;;;40.38;19.10;;;;;;;3.53;87.07;99972.44;2554906;28;20390;-82
2024/01/07 02:25:38;;;;;;;39.28;18.70;;;;;;;3.53;87.14;99972.44;2556469;28;20056;-83
2024/01/07 02:26:53;;;;;;;42.13;19.13;;;;;;;3.55;87.16;99967.31;2555650;28;20068;-83
2024/01/07 02:28:06;;;;;;;40.05;18.73;;;;;;;3.57;86.78;99973.38;2554846;28;20056;-83
2024/01/07 02:29:20;;;;;;;38.30;18.67;;;;;;;3.57;87.20;99971.63;2554913;28;20048;-83
2024/01/07 02:30:34;;;;;;;38.95;18.02;;;;;;;3.57;87.13;99978.53;2556330;28;20048;-83
2024/01/07 02:31:48;;;;;;;46.67;20.73;;;;;;;3.57;87.10;99971.63;2555117;28;20050;-83
2024/01/07 02:33:03;;;;;;;34.88;17.40;;;;;;;3.57;87.14;99963.03;2555279;28;20040;-83
2024/01/07 02:34:17;;;;;;;42.88;20.25;;;;;;;3.56;87.16;99972.47;2555741;28;20047;-82
2024/01/07 02:35:31;;;;;;;41.03;19.60;;;;;;;3.56;87.13;99972.47;2554697;28;20048;-81
2024/01/07 02:36:45;;;;;;;46.58;18.75;;;;;;;3.55;87.13;99968.19;2554101;28;20044;-82
2024/01/07 02:37:59;;;;;;;36.03;19.05;;;;;;;3.56;86.88;99969.03;2555285;28;20055;-83
2024/01/07 02:39:13;;;;;;;40.42;19.38;;;;;;;3.54;87.05;99969.03;2554756;28;20048;-82
2024/01/07 02:40:28;;;;;;;40.00;19.90;;;;;;;3.54;87.11;99975.88;2554766;28;20048;-82
2024/01/07 02:41:42;;;;;;;38.33;19.63;;;;;;;3.54;87.00;99973.31;2555110;28;20132;-82
2024/01/07 02:42:56;;;;;;;40.75;18.13;;;;;;;3.54;87.22;99965.56;2557008;28;20053;-83
2024/01/07 02:44:10;;;;;;;41.38;18.40;;;;;;;3.54;87.03;99969.03;2554571;28;20047;-82
2024/01/07 02:45:24;;;;;;;33.47;17.35;;;;;;;3.55;87.17;99972.47;2554558;28;20044;-81
2024/01/07 02:46:38;;;;;;;39.67;17.58;;;;;;;3.55;87.04;99970.75;2553446;28;20108;-81
2024/01/07 02:47:52;;;;;;;42.22;18.50;;;;;;;3.55;87.04;99969.91;2553458;28;20041;-80
2024/01/07 02:49:06;;;;;;;34.90;17.65;;;;;;;3.55;87.09;99969.91;2554834;28;20052;-78
2024/01/07 02:50:20;;;;;;;53.05;19.20;;;;;;;3.54;87.24;99970.72;2553754;28;20071;-80
2024/01/07 02:51:34;;;;;;;36.95;18.70;;;;;;;3.52;87.07;99968.16;2545190;28;20049;-80
2024/01/07 02:52:47;;;;;;;45.33;17.90;;;;;;;3.50;87.07;99960.38;2553531;28;20053;-79
2024/01/07 02:54:02;;;;;;;39.13;17.75;;;;;;;3.48;87.00;99964.69;2554329;28;20544;-81
2024/01/07 02:55:16;;;;;;;47.28;17.25;;;;;;;3.47;86.82;99972.41;2552854;28;20045;-79
2024/01/07 02:56:32;;;;;;;43.65;18.60;;;;;;;3.46;87.18;99966.38;2552968;28;20061;-80
2024/01/07 02:57:45;;;;;;;33.95;17.00;;;;;;;3.46;87.23;99963.81;2553256;28;20287;-81
2024/01/07 02:58:59;;;;;;;38.20;16.20;;;;;;;3.45;87.15;99969.81;2554010;28;20044;-80
2024/01/07 03:00:14;;;;;;;40.15;15.48;;;;;;;3.44;87.19;99970.66;2553190;28;20049;-81
2024/01/07 03:01:28;;;;;;;33.72;16.98;;;;;;;3.44;87.20;99962.94;2553728;28;20059;-80
2024/01/07 03:02:41;;;;;;;41.50;16.13;;;;;;;3.44;87.23;99972.38;2553435;28;20048;-79
2024/01/07 03:03:56;;;;;;;38.53;14.65;;;;;;;3.43;87.15;99970.63;2553316;28;20047;-80
2024/01/07 03:05:09;;;;;;;33.88;15.48;;;;;;;3.42;87.40;99969.78;2553361;28;20044;-81
2024/01/07 03:06:26;;;;;;;41.33;16.17;;;;;;;3.42;87.37;99964.63;2553694;28;20128;-79
2024/01/07 03:07:40;;;;;;;38.90;16.00;;;;;;;3.42;87.39;99968.91;2552922;28;20051;-80
2024/01/07 03:08:54;;;;;;;41.30;15.80;;;;;;;3.43;87.49;99970.63;2553720;28;20048;-81
2024/01/07 03:10:09;;;;;;;33.63;15.68;;;;;;;3.44;87.42;99974.97;2553912;28;20047;-81
2024/01/07 03:11:23;;;;;;;42.17;13.68;;;;;;;3.45;87.38;99968.94;2552964;28;20041;-81
2024/01/07 03:12:38;;;;;;;33.83;14.88;;;;;;;3.46;87.17;99975.84;2554030;28;20542;-80
2024/01/07 03:13:52;;;;;;;31.63;13.85;;;;;;;3.46;87.50;99968.97;2553596;28;20048;-80
2024/01/07 03:15:08;;;;;;;31.02;14.52;;;;;;;3.47;87.50;99973.25;2554277;28;20052;-79
2024/01/07 03:16:22;;;;;;;42.97;14.77;;;;;;;3.49;87.57;99978.44;2552931;28;20105;-80
2024/01/07 03:17:37;;;;;;;38.83;13.70;;;;;;;3.47;87.94;99975.84;2553809;28;20052;-81
2024/01/07 03:18:51;;;;;;;32.53;12.57;;;;;;;3.47;87.52;99970.69;2554084;28;20105;-82
2024/01/07 03:20:07;;;;;;;24.63;12.82;;;;;;;3.48;87.46;99971.53;2553253;28;20126;-80
2024/01/07 03:21:22;;;;;;;28.20;14.68;;;;;;;3.48;87.39;99972.44;2553748;28;20135;-81
2024/01/07 03:22:37;;;;;;;35.38;13.63;;;;;;;3.48;87.61;99972.44;2545411;28;20627;-81
2024/01/07 03:23:51;;;;;;;26.77;12.57;;;;;;;3.49;87.44;99981.88;2554224;28;20044;-80
2024/01/07 03:25:06;;;;;;;31.60;14.32;;;;;;;3.48;87.80;99968.97;2553843;28;20079;-81
2024/01/07 03:26:20;;;;;;;29.92;13.70;;;;;;;3.48;87.52;99974.13;2553209;28;20615;-81
2024/01/07 03:27:34;;;;;;;39.72;13.82;;;;;;;3.47;87.70;99975.84;2553242;28;20057;-81
2024/01/07 03:28:49;;;;;;;36.40;13.05;;;;;;;3.47;87.63;99975.84;2553743;28;20053;-81
2024/01/07 03:30:05;;;;;;;32.42;14.15;;;;;;;3.47;87.62;99981.00;2553581;28;20048;-80
2024/01/07 03:31:19;;;;;;;31.48;13.70;;;;;;;3.46;87.53;99976.72;2553562;28;20041;-83
2024/01/07 03:32:33;;;;;;;32.03;13.38;;;;;;;3.46;87.54;99971.56;2554062;28;20111;-81
2024/01/07 03:33:46;;;;;;;31.80;14.07;;;;;;;3.45;87.68;99974.97;2553591;28;20056;-81
2024/01/07 03:35:01;;;;;;;39.22;14.27;;;;;;;3.45;87.63;99974.97;2553582;28;20044;-80
2024/01/07 03:36:14;;;;;;;34.08;13.88;;;;;;;3.45;87.64;99974.09;2555376;28;20036;-81
2024/01/07 03:37:29;;;;;;;29.88;15.43;;;;;;;3.44;87.60;99977.53;2555428;28;20063;-82
2024/01/07 03:38:42;;;;;;;30.75;12.95;;;;;;;3.44;87.64;99975.81;2555695;28;20048;-82
2024/01/07 03:39:57;;;;;;;30.80;14.82;;;;;;;3.45;87.72;99976.69;2555405;28;20041;-82
2024/01/07 03:41:15;;;;;;;33.72;14.30;;;;;;;3.46;87.52;99973.28;2556433;28;20044;-81
2024/01/07 03:42:30;;;;;;;29.58;13.40;;;;;;;3.46;87.75;99975.84;2556780;28;20075;-81
2024/01/07 03:43:43;;;;;;;31.38;13.77;;;;;;;3.46;87.70;99979.28;2555876;28;20491;-79
2024/01/07 03:44:59;;;;;;;31.65;15.05;;;;;;;3.46;87.67;99973.28;2555217;28;20044;-80
2024/01/07 03:46:13;;;;;;;35.92;15.55;;;;;;;3.46;87.67;99979.28;2555288;28;20059;-79
2024/01/07 03:47:27;;;;;;;27.35;13.20;;;;;;;3.46;87.73;99976.72;2554685;28;20059;-80
2024/01/07 03:48:40;;;;;;;34.55;14.00;;;;;;;3.46;87.83;99979.28;2555198;28;20045;-80
2024/01/07 03:49:55;;;;;;;34.65;15.80;;;;;;;3.47;87.76;99981.00;2554988;28;20048;-80
2024/01/07 03:51:08;;;;;;;35.25;14.43;;;;;;;3.50;87.79;99987.91;2552359;28;20045;-79
2024/01/07 03:52:23;;;;;;;32.83;13.82;;;;;;;3.49;87.87;99989.63;2555983;28;20549;-81
2024/01/07 03:53:36;;;;;;;31.35;13.82;;;;;;;3.50;87.64;99986.19;2555677;28;20052;-80
2024/01/07 03:54:51;;;;;;;35.10;14.23;;;;;;;3.49;87.91;99987.06;2555708;28;20044;-81
2024/01/07 03:56:05;;;;;;;37.72;16.40;;;;;;;3.48;87.80;99984.44;2555633;28;20037;-81
2024/01/07 03:57:20;;;;;;;31.90;14.07;;;;;;;3.46;87.86;99989.59;2555389;28;20114;-81
2024/01/07 03:58:34;;;;;;;29.48;13.85;;;;;;;3.47;87.79;99991.31;2556406;28;20457;-82
2024/01/07 03:59:49;;;;;;;41.72;15.55;;;;;;;3.48;87.83;99989.59;2555630;28;20040;-80
2024/01/07 04:01:04;;;;;;;34.30;13.23;;;;;;;3.49;88.01;99992.22;2555944;28;20052;-79
2024/01/07 04:02:19;;;;;;;37.38;14.73;;;;;;;3.50;88.02;99993.94;2555658;28;20055;-80
2024/01/07 04:03:32;;;;;;;35.55;14.80;;;;;;;3.53;87.92;100000.81;2554906;28;20429;-80
2024/01/07 04:04:46;;;;;;;40.28;14.23;;;;;;;3.53;87.83;99994.81;2555411;28;20044;-81
2024/01/07 04:06:00;;;;;;;32.13;14.35;;;;;;;3.53;87.98;99999.97;2555554;28;20040;-81
2024/01/07 04:07:15;;;;;;;36.40;15.48;;;;;;;3.52;88.06;99990.50;2554718;28;20047;-80
2024/01/07 04:08:28;;;;;;;29.48;14.45;;;;;;;3.52;87.95;100003.41;2555700;28;20067;-81
2024/01/07 04:09:43;;;;;;;38.25;14.32;;;;;;;3.50;87.92;100004.25;2555461;28;20052;-81
2024/01/07 04:10:57;;;;;;;33.47;15.13;;;;;;;3.49;87.85;100007.69;2555936;28;20052;-81
2024/01/07 04:12:11;;;;;;;31.10;12.80;;;;;;;3.48;87.98;100000.81;2555141;28;20801;-81
2024/01/07 04:13:25;;;;;;;31.63;14.52;;;;;;;3.48;88.08;100008.56;2555728;28;20048;-80
2024/01/07 04:14:39;;;;;;;29.27;15.98;;;;;;;3.50;88.02;100003.38;2555986;28;20052;-80
2024/01/07 04:15:53;;;;;;;34.13;14.25;;;;;;;3.50;88.02;100004.25;2554758;28;20131;-82
2024/01/07 04:17:09;;;;;;;32.85;16.48;;;;;;;3.51;88.01;100007.69;2555578;28;20429;-81
2024/01/07 04:18:22;;;;;;;32.25;12.80;;;;;;;3.50;88.00;100004.25;2555900;28;20048;-81
2024/01/07 04:19:37;;;;;;;24.17;12.48;;;;;;;3.51;87.98;100010.25;2555871;28;20076;-81
2024/01/07 04:20:51;;;;;;;36.35;14.65;;;;;;;3.48;87.85;100003.38;2555996;28;20533;-82
2024/01/07 04:22:05;;;;;;;25.98;12.50;;;;;;;3.48;87.93;100002.50;2555995;28;20048;-82
2024/01/07 04:23:19;;;;;;;35.38;14.40;;;;;;;3.47;88.00;100004.22;2556010;28;20056;-82
2024/01/07 04:24:33;;;;;;;41.42;14.15;;;;;;;3.47;88.00;100008.53;2556537;28;20055;-82
2024/01/07 04:25:47;;;;;;;34.40;14.52;;;;;;;3.46;87.99;100007.66;2555616;28;20048;-81
2024/01/07 04:27:01;;;;;;;26.98;14.15;;;;;;;3.46;87.87;100009.38;2555689;28;20119;-83
2024/01/07 04:28:15;;;;;;;27.65;13.80;;;;;;;3.45;87.98;100018.81;2555839;28;20048;-81
2024/01/07 04:29:29;;;;;;;30.63;13.98;;;;;;;3.44;87.93;100017.09;2556127;28;20055;-82
2024/01/07 04:30:43;;;;;;;38.33;12.80;;;;;;;3.44;87.88;100019.69;2556189;28;20045;-81
2024/01/07 04:31:57;;;;;;;29.90;14.88;;;;;;;3.44;88.03;100011.94;2555310;28;20050;-81
2024/01/07 04:33:12;;;;;;;25.95;12.95;;;;;;;3.45;87.99;100012.78;2555884;28;20044;-82
2024/01/07 04:34:26;;;;;;;25.33;12.50;;;;;;;3.45;88.02;100021.38;2555816;28;20049;-81
2024/01/07 04:35:40;;;;;;;27.58;12.98;;;;;;;3.46;88.00;100022.28;2555235;28;20528;-82
2024/01/07 04:36:54;;;;;;;24.60;12.23;;;;;;;3.46;88.00;100011.97;2555788;28;20055;-82
2024/01/07 04:38:08;;;;;;;25.83;13.13;;;;;;;3.47;88.12;100021.41;2556882;28;20094;-82
2024/01/07 04:39:23;;;;;;;24.05;13.27;;;;;;;3.47;88.16;100027.44;2555487;28;20071;-83
2024/01/07 04:40:36;;;;;;;22.33;12.27;;;;;;;3.47;88.04;100022.28;2556468;28;20135;-82
2024/01/07 04:41:51;;;;;;;29.75;11.52;;;;;;;3.47;87.97;100024.84;2555862;28;20055;-83
2024/01/07 04:43:04;;;;;;;23.60;10.00;;;;;;;3.47;87.99;100019.69;2556255;28;20517;-82
2024/01/07 04:44:18;;;;;;;28.85;9.63;;;;;;;3.47;88.07;100026.56;2555415;28;20046;-84
2024/01/07 04:45:32;;;;;;;13.60;7.40;;;;;;;3.47;87.98;100030.03;2556269;28;20044;-83
2024/01/07 04:46:48;;;;;;;1.02;1.02;;;;;;;3.48;88.01;100031.78;2555428;28;20048;-83
2024/01/07 04:48:02;;;;;;;0.40;0.40;;;;;;;3.48;88.01;100024.03;2556079;28;20044;-83
2024/01/07 04:49:18;;;;;;;0.10;0.10;;;;;;;3.49;88.07;100030.91;2556087;28;20466;-82
2024/01/07 04:50:31;;;;;;;0.35;0.35;;;;;;;3.47;88.11;100024.84;2556896;28;20146;-82
2024/01/07 04:51:45;;;;;;;0.73;0.73;;;;;;;3.47;88.02;100027.44;2558106;28;20040;-82
2024/01/07 04:52:59;;;;;;;0.30;0.30;;;;;;;3.45;88.07;100026.56;2556223;28;20049;-83
2024/01/07 04:54:13;;;;;;;0.20;0.20;;;;;;;3.44;88.02;100027.41;2556931;28;20051;-82
2024/01/07 04:55:27;;;;;;;0.50;0.50;;;;;;;3.43;88.15;100028.28;2556177;28;20051;-81
2024/01/07 04:56:41;;;;;;;0.10;0.10;;;;;;;3.44;88.07;100029.13;2557064;28;20412;-83
2024/01/07 04:57:55;;;;;;;1.85;1.08;;;;;;;3.42;88.28;100026.53;2556327;28;20040;-81
2024/01/07 04:59:09;;;;;;;0.40;0.40;;;;;;;3.42;88.10;100026.53;2557425;28;20047;-81
2024/01/07 05:00:23;;;;;;;0.20;0.20;;;;;;;3.43;88.08;100037.69;2555842;28;20089;-83
2024/01/07 05:01:37;;;;;;;2.78;1.75;;;;;;;3.42;88.04;100035.97;2557657;28;20056;-81
2024/01/07 05:02:51;;;;;;;0.20;0.20;;;;;;;3.42;88.03;100030.81;2555345;28;20115;-82
2024/01/07 05:04:05;;;;;;;1.65;1.55;;;;;;;3.41;88.23;100029.09;2555966;28;20045;-84
2024/01/07 05:05:20;;;;;;;0.20;0.20;;;;;;;3.40;87.98;100035.97;2555450;28;20600;-83
2024/01/07 05:06:34;;;;;;;0.15;0.15;;;;;;;3.40;88.09;100035.09;2556249;28;20071;-83
2024/01/07 05:07:48;;;;;;;0.60;0.60;;;;;;;3.39;88.09;100036.81;2555411;28;20052;-83
2024/01/07 05:09:02;;;;;;;0.28;0.28;;;;;;;3.39;88.05;100036.81;2556279;28;20049;-82
2024/01/07 05:10:16;;;;;;;0.20;0.20;;;;;;;3.38;88.16;100035.09;2555798;28;20219;-83
2024/01/07 05:11:30;;;;;;;1.38;1.27;;;;;;;3.37;88.14;100038.50;2555581;28;20443;-83
2024/01/07 05:12:44;;;;;;;0.85;0.85;;;;;;;3.36;88.19;100039.38;2555464;28;20051;-84
2024/01/07 05:13:58;;;;;;;0.60;0.60;;;;;;;3.36;88.21;100036.78;2555476;28;20048;-83
2024/01/07 05:15:12;;;;;;;0.30;0.30;;;;;;;3.36;88.22;100041.94;2555733;28;20044;-83
2024/01/07 05:16:26;;;;;;;0.30;0.30;;;;;;;3.34;88.20;100046.22;2554959;28;20063;-81
2024/01/07 05:17:39;;;;;;;0.20;0.20;;;;;;;3.34;88.19;100043.63;2555609;28;20049;-83
2024/01/07 05:18:54;;;;;;;0.55;0.55;;;;;;;3.34;88.14;100043.63;2556039;28;20416;-81
2024/01/07 05:20:09;;;;;;;0.20;0.20;;;;;;;3.34;88.22;100053.09;2556004;28;20044;-83
2024/01/07 05:21:24;;;;;;;1.80;1.70;;;;;;;3.32;88.26;100045.34;2555835;28;20098;-82
2024/01/07 05:22:38;;;;;;;0.90;0.90;;;;;;;3.32;88.21;100050.50;2556429;28;20064;-83
2024/01/07 05:23:52;;;;;;;1.42;1.35;;;;;;;3.31;88.11;100047.91;2554462;28;20051;-82
2024/01/07 05:25:07;;;;;;;0.40;0.40;;;;;;;3.30;88.21;100048.75;2556243;28;20041;-82
2024/01/07 05:26:21;;;;;;;0.30;0.30;;;;;;;3.28;88.26;100048.75;2556349;28;20453;-82
2024/01/07 05:27:35;;;;;;;0.20;0.20;;;;;;;3.28;88.20;100047.03;2556471;28;20048;-83
2024/01/07 05:28:49;;;;;;;0.20;0.20;;;;;;;3.28;88.28;100048.75;2556549;28;20064;-82
2024/01/07 05:30:04;;;;;;;2.78;1.52;;;;;;;3.31;88.19;100053.94;2557812;28;20130;-83
2024/01/07 05:31:19;;;;;;;0.38;0.38;;;;;;;3.31;88.29;100045.34;2556732;28;20052;-82
2024/01/07 05:32:32;;;;;;;0.20;0.20;;;;;;;3.31;88.25;100047.91;2556284;28;20047;-82
2024/01/07 05:33:47;;;;;;;0.15;0.15;;;;;;;3.34;88.41;100050.53;2556220;28;20108;-81
2024/01/07 05:35:00;;;;;;;0.20;0.20;;;;;;;3.35;88.32;100054.81;2555538;28;20075;-82
2024/01/07 05:36:15;;;;;;;0.20;0.20;;;;;;;3.35;88.39;100054.81;2556054;28;20400;-80
2024/01/07 05:37:30;;;;;;;0.30;0.30;;;;;;;3.33;88.41;100049.66;2557242;28;20052;-82
2024/01/07 05:38:44;;;;;;;0.22;0.22;;;;;;;3.35;88.45;100057.41;2556191;28;20059;-82
2024/01/07 05:39:58;;;;;;;0.95;0.95;;;;;;;3.34;88.16;100053.09;2556960;28;20044;-82
2024/01/07 05:41:12;;;;;;;0.10;0.10;;;;;;;3.33;88.55;100057.41;2557411;28;20536;-83
2024/01/07 05:42:26;;;;;;;0.20;0.20;;;;;;;3.34;88.41;100053.09;2558584;28;20542;-82
2024/01/07 05:43:40;;;;;;;0.68;0.68;;;;;;;3.35;88.50;100054.81;2557238;28;20098;-82
2024/01/07 05:44:55;;;;;;;0.15;0.15;;;;;;;3.35;88.50;100055.69;2557117;28;20067;-81
2024/01/07 05:46:08;;;;;;;1.73;1.73;;;;;;;3.37;88.36;100058.28;2556974;28;20040;-83